INFORMAÇÕES DO AERODROMO
Icao Aerodromo SBSP Nome do Aerodromo Congonhas Airport Cidade São Paulo
Código GPS SBSP Elevação Média 2631 ft Tipo de Aerodromo Aeroporto Grande Porte

INFORMAÇÃO DE PISTA
Pista 17L Comprimento da Pista 4708 ft Largura da Pista 148 ft
Elevação da Pista 0 ft Distância de Area de Escape da Pista 0 ft Orientação da Pista 0
Pista 35R Comprimento da Pista 4708 ft Largura da Pista 148 ft
Elevação da Pista 0 ft Distância de Area de Escape da Pista 0 ft Orientação da Pista 0
Pista 17R Comprimento da Pista 6365 ft Largura da Pista 148 ft
Elevação da Pista 0 ft Distância de Area de Escape da Pista 0 ft Orientação da Pista 0
Pista 35L Comprimento da Pista 6365 ft Largura da Pista 148 ft
Elevação da Pista 0 ft Distância de Area de Escape da Pista 0 ft Orientação da Pista 0

FREQUÊNCIAS DO AERODROMO
Tipo APP Nome SAO PAULO Frequência 119.8 MHZ
Tipo ATIS Nome ATIS Frequência 127.65 MHZ
Tipo CLD Nome CLNC DEL Frequência 120.6 MHZ
Tipo GND Nome GND Frequência 121.9 MHZ
Tipo TWR Nome SAO PAULO Frequência 127.15 MHZ

INFORMAÇÕES DE NAVEGAÇÃO PRÓXIMO AO AERODROMO
Tipo VOR-DME Nome Congonhas Frequência 116900 KHZ
Tipo NDB Nome Diadema Frequência 200 KHZ
Tipo NDB Nome Mada Frequência 290 KHZ
Tipo NDB Nome Metro Frequência 330 KHZ
Tipo NDB Nome Sao Paulo Frequência 250 KHZ

Informações de Meteorologia(METAR atual)
METAR DE SBSP
ADDS - METARS form results

(0952 UTC 26 April 2018)
Data provider http://aviationweather.gov/adds/metars/
 
METAR text: SBSP 260900Z 06003KT 9999 SCT006 19/17 Q1022
Conditions at: SBSP (SAO PAULO/CONGON, BR) observed 0900 UTC 26 April 2018
Temperature: 19.0°C (66°F)
Dewpoint: 17.0°C (63°F) [RH = 88%]
Pressure (altimeter): 30.18 inches Hg (1022.0 mb)
Winds: from the ENE (60 degrees) at 3 MPH (3 knots; 1.6 m/s)
Visibility: 6 or more miles (10+ km)
Ceiling: at least 12,000 feet AGL
Clouds: scattered clouds at 600 feet AGL
Weather: no significant weather observed at this time

Forecast for: SBSP (SAO PAULO/CONGON, BR)
Text: TAF SBSP 260201Z 2606/2706 13002KT 8000 FEW011 TN17/2606Z TX27/2617Z
Forecast period: 0600 to 1000 UTC 26 April 2018
Forecast type: FROM: standard forecast or significant change
Winds: from the SE (130 degrees) at 2 MPH (2 knots; 1.0 m/s)
Visibility: 5 miles (8 km)
Clouds: few clouds at 1100 feet AGL
Weather: no significant weather forecast for this period
Forecast for: SBSP (SAO PAULO/CONGON, BR)
Text: TAF SBSP 260201Z 2606/2706 13002KT 8000 FEW011 TN17/2606Z TX27/2617Z
Forecast period: 0600 to 1000 UTC 26 April 2018
Forecast type: FROM: standard forecast or significant change
Winds: from the SE (130 degrees) at 2 MPH (2 knots; 1.0 m/s)
Visibility: 5 miles (8 km)
Clouds: few clouds at 1100 feet AGL
Weather: no significant weather forecast for this period
Forecast for: SBSP (SAO PAULO/CONGON, BR)
Text: TAF SBSP 260201Z 2606/2706 13002KT 8000 FEW011 TN17/2606Z TX27/2617Z
Forecast period: 0800 to 1000 UTC 26 April 2018
Forecast type: PROBABLE: 30 percent likelihood of the following during this time
Ceiling: 1100 feet AGL
Clouds: broken clouds at 1100 feet AGL
Weather: no significant weather forecast for this period
Forecast for: SBSP (SAO PAULO/CONGON, BR)
Text: TAF SBSP 260201Z 2606/2706 13002KT 8000 FEW011 TN17/2606Z TX27/2617Z
Forecast period: 0800 to 1000 UTC 26 April 2018
Forecast type: PROBABLE: 30 percent likelihood of the following during this time
Ceiling: 1100 feet AGL
Clouds: broken clouds at 1100 feet AGL
Weather: no significant weather forecast for this period
Forecast for: SBSP (SAO PAULO/CONGON, BR)
Text: TAF SBSP 260201Z 2606/2706 13002KT 8000 FEW011 TN17/2606Z TX27/2617Z
Forecast period: 1000 to 1300 UTC 26 April 2018
Forecast type: BECOMING: Conditions expected to become as follows by 1200 UTC 26 April 2018
Winds: from the E (80 degrees) at 6 MPH (5 knots; 2.6 m/s)
Visibility: 5 miles (8 km)
Clouds: few clouds at 1100 feet AGL
Weather: no significant weather forecast for this period
Forecast for: SBSP (SAO PAULO/CONGON, BR)
Text: TAF SBSP 260201Z 2606/2706 13002KT 8000 FEW011 TN17/2606Z TX27/2617Z
Forecast period: 1000 to 1300 UTC 26 April 2018
Forecast type: BECOMING: Conditions expected to become as follows by 1200 UTC 26 April 2018
Winds: from the E (80 degrees) at 6 MPH (5 knots; 2.6 m/s)
Visibility: 5 miles (8 km)
Clouds: few clouds at 1100 feet AGL
Weather: no significant weather forecast for this period
Forecast for: SBSP (SAO PAULO/CONGON, BR)
Text: TAF SBSP 260201Z 2606/2706 13002KT 8000 FEW011 TN17/2606Z TX27/2617Z
Forecast period: 1300 to 1500 UTC 26 April 2018
Forecast type: BECOMING: Conditions expected to become as follows by 1500 UTC 26 April 2018
Winds: from the ENE (60 degrees) at 5 MPH (4 knots; 2.1 m/s)
Visibility: 6 or more miles (10+ km)
Weather: NSW  (no significant weather)
Forecast for: SBSP (SAO PAULO/CONGON, BR)
Text: TAF SBSP 260201Z 2606/2706 13002KT 8000 FEW011 TN17/2606Z TX27/2617Z
Forecast period: 1300 to 1500 UTC 26 April 2018
Forecast type: BECOMING: Conditions expected to become as follows by 1500 UTC 26 April 2018
Winds: from the ENE (60 degrees) at 5 MPH (4 knots; 2.1 m/s)
Visibility: 6 or more miles (10+ km)
Weather: NSW  (no significant weather)
Forecast for: SBSP (SAO PAULO/CONGON, BR)
Text: TAF SBSP 260201Z 2606/2706 13002KT 8000 FEW011 TN17/2606Z TX27/2617Z
Forecast period: 1500 to 1700 UTC 26 April 2018
Forecast type: BECOMING: Conditions expected to become as follows by 1700 UTC 26 April 2018
Winds: from the ENE (60 degrees) at 5 MPH (4 knots; 2.1 m/s)
Visibility: 6 or more miles (10+ km)
Clouds: few clouds at 4000 feet AGL
Weather: NSW  (no significant weather)
Forecast for: SBSP (SAO PAULO/CONGON, BR)
Text: TAF SBSP 260201Z 2606/2706 13002KT 8000 FEW011 TN17/2606Z TX27/2617Z
Forecast period: 1500 to 1700 UTC 26 April 2018
Forecast type: BECOMING: Conditions expected to become as follows by 1700 UTC 26 April 2018
Winds: from the ENE (60 degrees) at 5 MPH (4 knots; 2.1 m/s)
Visibility: 6 or more miles (10+ km)
Clouds: few clouds at 4000 feet AGL
Weather: NSW  (no significant weather)
Forecast for: SBSP (SAO PAULO/CONGON, BR)
Text: TAF SBSP 260201Z 2606/2706 13002KT 8000 FEW011 TN17/2606Z TX27/2617Z
Forecast period: 1700 to 2000 UTC 26 April 2018
Forecast type: BECOMING: Conditions expected to become as follows by 1900 UTC 26 April 2018
Winds: from the SSE (160 degrees) at 12 MPH (10 knots; 5.2 m/s)
Visibility: 6 or more miles (10+ km)
Clouds: few clouds at 4000 feet AGL
Weather: NSW  (no significant weather)
Forecast for: SBSP (SAO PAULO/CONGON, BR)
Text: TAF SBSP 260201Z 2606/2706 13002KT 8000 FEW011 TN17/2606Z TX27/2617Z
Forecast period: 1700 to 2000 UTC 26 April 2018
Forecast type: BECOMING: Conditions expected to become as follows by 1900 UTC 26 April 2018
Winds: from the SSE (160 degrees) at 12 MPH (10 knots; 5.2 m/s)
Visibility: 6 or more miles (10+ km)
Clouds: few clouds at 4000 feet AGL
Weather: NSW  (no significant weather)
Forecast for: SBSP (SAO PAULO/CONGON, BR)
Text: TAF SBSP 260201Z 2606/2706 13002KT 8000 FEW011 TN17/2606Z TX27/2617Z
Forecast period: 2000 UTC 26 April 2018 to 0100 UTC 27 April 2018
Forecast type: BECOMING: Conditions expected to become as follows by 2200 UTC 26 April 2018
Winds: from the SSE (160 degrees) at 12 MPH (10 knots; 5.2 m/s)
Visibility: 6 or more miles (10+ km)
Ceiling: 1500 feet AGL
Clouds: broken clouds at 1500 feet AGL
Weather: NSW  (no significant weather)
Forecast for: SBSP (SAO PAULO/CONGON, BR)
Text: TAF SBSP 260201Z 2606/2706 13002KT 8000 FEW011 TN17/2606Z TX27/2617Z
Forecast period: 2000 UTC 26 April 2018 to 0100 UTC 27 April 2018
Forecast type: BECOMING: Conditions expected to become as follows by 2200 UTC 26 April 2018
Winds: from the SSE (160 degrees) at 12 MPH (10 knots; 5.2 m/s)
Visibility: 6 or more miles (10+ km)
Ceiling: 1500 feet AGL
Clouds: broken clouds at 1500 feet AGL
Weather: NSW  (no significant weather)
Forecast for: SBSP (SAO PAULO/CONGON, BR)
Text: TAF SBSP 260201Z 2606/2706 13002KT 8000 FEW011 TN17/2606Z TX27/2617Z
Forecast period: 0100 to 0600 UTC 27 April 2018
Forecast type: BECOMING: Conditions expected to become as follows by 0300 UTC 27 April 2018
Winds: from the SE (130 degrees) at 6 MPH (5 knots; 2.6 m/s)
Visibility: 5 miles (8 km)
Clouds: few clouds at 1500 feet AGL
Weather: NSW  (no significant weather)
Forecast for: SBSP (SAO PAULO/CONGON, BR)
Text: TAF SBSP 260201Z 2606/2706 13002KT 8000 FEW011 TN17/2606Z TX27/2617Z
Forecast period: 0100 to 0600 UTC 27 April 2018
Forecast type: BECOMING: Conditions expected to become as follows by 0300 UTC 27 April 2018
Winds: from the SE (130 degrees) at 6 MPH (5 knots; 2.6 m/s)
Visibility: 5 miles (8 km)
Clouds: few clouds at 1500 feet AGL
Weather: NSW  (no significant weather)

MAPA DO AERODROMO


Desenvolvido por Virtual Airlines Manager




Modificado por Servidor Brasil Amigos